Time;durP1;ratioP1;P1;durP2;ratioP2;P2;SDS_P1;SDS_P2;PMS_P1;PMS_P2;Temp;Humidity;BMP_temperature;BMP_pressure;BME280_temperature;BME280_humidity;BME280_pressure;Samples;Min_cycle;Max_cycle;Signal;HPM_P1;HPM_P2
2024/01/24 00:01:16;;;;;;;1.08;1.02;;;;;;;2.81;60.14;101321.09;4333995;33;32287;-86
2024/01/24 00:03:44;;;;;;;2.90;2.72;;;;;;;2.64;60.96;101314.78;4325089;32;33896;-86
2024/01/24 00:06:11;;;;;;;0.45;0.32;;;;;;;2.57;61.18;101312.97;4338478;32;33470;-86
2024/01/24 00:08:39;;;;;;;2.60;1.48;;;;;;;2.63;60.86;101315.66;4340040;32;33090;-86
2024/01/24 00:11:07;;;;;;;0.00;0.00;;;;;;;2.59;61.20;101326.88;4336277;32;33276;-86
2024/01/24 00:13:35;;;;;;;1.25;1.25;;;;;;;2.53;61.63;101327.69;4340729;33;33344;-86
2024/01/24 00:16:04;;;;;;;0.98;0.68;;;;;;;2.53;61.00;101332.91;4340102;32;32741;-86
2024/01/24 00:18:31;;;;;;;0.20;0.20;;;;;;;2.45;61.22;101333.66;4330341;33;33427;-86
2024/01/24 00:20:59;;;;;;;2.30;1.52;;;;;;;2.56;61.26;101334.66;4325932;32;33024;-88
2024/01/24 00:23:27;;;;;;;7.18;2.78;;;;;;;2.61;61.09;101325.19;4339053;32;34316;-88
2024/01/24 00:25:55;;;;;;;0.62;0.62;;;;;;;2.56;60.90;101324.22;4349303;32;34212;-89
2024/01/24 00:28:26;;;;;;;1.65;1.55;;;;;;;2.75;60.80;101333.16;4346781;33;33479;-89
2024/01/24 00:30:54;;;;;;;3.08;2.35;;;;;;;2.63;60.42;101333.91;4337258;32;31952;-89
2024/01/24 00:33:24;;;;;;;1.70;1.60;;;;;;;2.47;61.39;101331.91;4342857;32;32521;-88
2024/01/24 00:35:51;;;;;;;1.37;1.37;;;;;;;2.66;60.74;101322.63;4337199;33;33757;-88
2024/01/24 00:38:19;;;;;;;0.70;0.70;;;;;;;2.53;60.66;101324.22;4344595;32;33142;-87
2024/01/24 00:40:47;;;;;;;1.05;0.95;;;;;;;2.49;61.25;101319.81;4330749;32;33133;-88
2024/01/24 00:43:14;;;;;;;0.95;0.95;;;;;;;2.56;61.06;101309.47;4349441;32;34133;-89
2024/01/24 00:45:42;;;;;;;1.75;1.65;;;;;;;2.55;61.34;101304.22;4347387;32;32537;-86
2024/01/24 00:48:10;;;;;;;2.17;2.05;;;;;;;2.53;61.30;101311.16;4341982;32;32955;-86
2024/01/24 00:50:38;;;;;;;1.42;1.40;;;;;;;2.47;60.26;101317.19;4345358;32;33911;-86
2024/01/24 00:53:06;;;;;;;3.75;3.42;;;;;;;2.45;60.75;101315.41;4362521;32;33722;-86
2024/01/24 00:55:33;;;;;;;0.52;0.52;;;;;;;2.39;60.98;101325.75;4338383;32;33775;-86
2024/01/24 00:58:01;;;;;;;1.25;1.25;;;;;;;2.36;60.94;101320.47;4339527;32;33603;-86
2024/01/24 01:00:29;;;;;;;0.10;0.10;;;;;;;2.24;61.71;101327.28;4365079;32;33164;-85
2024/01/24 01:02:57;;;;;;;2.05;1.50;;;;;;;2.28;61.88;101326.47;4347917;32;32722;-86
2024/01/24 01:05:25;;;;;;;0.45;0.45;;;;;;;2.34;61.53;101319.59;4322092;32;33103;-86
2024/01/24 01:07:53;;;;;;;1.05;1.02;;;;;;;2.23;61.11;101315.13;4363328;32;32805;-86
2024/01/24 01:10:21;;;;;;;0.20;0.20;;;;;;;2.25;60.74;101302.97;4354865;32;33408;-86
2024/01/24 01:12:48;;;;;;;1.67;1.58;;;;;;;2.33;60.89;101294.34;4344166;32;34248;-85
2024/01/24 01:15:16;;;;;;;0.40;0.40;;;;;;;2.30;60.89;101283.06;4350802;32;32815;-85
2024/01/24 01:17:44;;;;;;;2.33;1.70;;;;;;;2.41;60.68;101279.72;4359329;32;33888;-86
2024/01/24 01:20:14;;;;;;;1.02;1.02;;;;;;;2.55;60.08;101279.03;4338837;32;33212;-87
2024/01/24 01:22:42;;;;;;;0.10;0.10;;;;;;;2.41;60.40;101269.28;4341575;32;32250;-87
2024/01/24 01:25:09;;;;;;;1.25;1.12;;;;;;;2.14;61.70;101262.00;4349476;32;33902;-87
2024/01/24 01:27:37;;;;;;;0.05;0.05;;;;;;;2.09;61.67;101248.91;4347251;32;34154;-85
2024/01/24 01:30:07;;;;;;;2.40;2.20;;;;;;;2.20;61.63;101255.13;4344102;32;32980;-85
2024/01/24 01:32:34;;;;;;;0.68;0.52;;;;;;;2.23;61.83;101241.22;4315791;32;32451;-84
2024/01/24 01:35:02;;;;;;;0.52;0.50;;;;;;;2.40;60.55;101247.56;4352815;32;34164;-85
2024/01/24 01:37:30;;;;;;;0.45;0.45;;;;;;;2.27;61.35;101246.50;4343959;32;33778;-85
2024/01/24 01:39:58;;;;;;;0.20;0.20;;;;;;;2.37;60.05;101257.06;4344675;32;32106;-85
2024/01/24 01:42:26;;;;;;;1.20;1.20;;;;;;;2.34;60.60;101246.63;4344745;32;33839;-85
2024/01/24 01:44:54;;;;;;;1.23;0.80;;;;;;;2.26;60.57;101249.97;4341877;32;33972;-85
2024/01/24 01:47:22;;;;;;;0.55;0.55;;;;;;;2.28;60.08;101243.06;4353867;32;33513;-85
2024/01/24 01:49:50;;;;;;;0.15;0.15;;;;;;;2.00;61.15;101230.53;4357328;32;33772;-84
2024/01/24 01:52:18;;;;;;;8.15;1.65;;;;;;;2.40;59.27;101221.47;4341631;32;33660;-85
2024/01/24 01:54:46;;;;;;;0.45;0.45;;;;;;;2.14;60.30;101220.28;4361808;32;33891;-85
2024/01/24 01:57:15;;;;;;;2.42;2.22;;;;;;;2.00;60.59;101215.78;4341913;32;33949;-84
2024/01/24 01:59:43;;;;;;;1.30;1.23;;;;;;;2.18;59.96;101209.91;4355034;32;33208;-84
2024/01/24 02:02:11;;;;;;;1.42;1.33;;;;;;;1.88;60.20;101209.50;4328545;32;32992;-84
2024/01/24 02:04:39;;;;;;;1.58;0.95;;;;;;;1.98;60.28;101211.38;4329820;32;33445;-84
2024/01/24 02:07:06;;;;;;;0.82;0.80;;;;;;;1.99;60.49;101214.03;4304821;32;33169;-84
2024/01/24 02:09:34;;;;;;;0.60;0.60;;;;;;;2.04;60.72;101221.88;4353366;32;33862;-84
2024/01/24 02:12:02;;;;;;;1.40;1.30;;;;;;;2.04;60.81;101219.25;4348357;32;33461;-84
2024/01/24 02:14:30;;;;;;;1.95;1.85;;;;;;;2.09;60.45;101225.44;4350590;32;34105;-84
2024/01/24 02:16:58;;;;;;;0.20;0.20;;;;;;;2.07;60.60;101221.94;4312258;32;33104;-84
2024/01/24 02:19:26;;;;;;;0.47;0.47;;;;;;;1.96;61.59;101218.31;4344728;32;32409;-84
2024/01/24 02:21:54;;;;;;;1.58;1.48;;;;;;;2.07;60.23;101211.50;4335231;32;32546;-86
2024/01/24 02:24:21;;;;;;;1.48;1.23;;;;;;;1.83;60.80;101211.16;4323983;33;34542;-86
2024/01/24 02:26:50;;;;;;;1.08;1.05;;;;;;;2.25;59.78;101203.94;4333191;33;34363;-86
2024/01/24 02:29:18;;;;;;;1.80;1.70;;;;;;;1.94;59.72;101200.03;4341774;32;33067;-87
2024/01/24 02:31:45;;;;;;;4.75;1.12;;;;;;;1.85;60.03;101205.09;4346462;32;32889;-87
2024/01/24 02:34:13;;;;;;;0.80;0.73;;;;;;;1.88;60.26;101199.09;4343354;32;33196;-87
2024/01/24 02:36:41;;;;;;;1.17;1.12;;;;;;;1.90;60.31;101195.66;4352720;32;32460;-88
2024/01/24 02:39:08;;;;;;;1.85;0.80;;;;;;;2.28;59.27;101185.72;4356614;32;33573;-88
2024/01/24 02:41:39;;;;;;;0.15;0.15;;;;;;;1.89;60.48;101175.66;4364029;32;32479;-86
2024/01/24 02:44:07;;;;;;;0.98;0.98;;;;;;;1.75;61.42;101183.25;4339687;32;32821;-86
2024/01/24 02:46:35;;;;;;;0.43;0.43;;;;;;;1.85;61.09;101183.41;4345763;32;34052;-85
2024/01/24 02:49:03;;;;;;;0.55;0.55;;;;;;;1.85;61.52;101186.88;4347255;32;33543;-86
2024/01/24 02:51:31;;;;;;;1.00;0.90;;;;;;;1.86;61.17;101185.19;4347601;32;32491;-85
2024/01/24 02:53:59;;;;;;;1.15;1.08;;;;;;;1.92;60.80;101182.66;4351565;32;33864;-86
2024/01/24 02:56:26;;;;;;;0.55;0.55;;;;;;;1.84;61.02;101185.13;4356081;32;33314;-86
2024/01/24 02:58:54;;;;;;;0.50;0.50;;;;;;;1.79;61.12;101182.47;4358806;32;33576;-87
2024/01/24 03:01:22;;;;;;;0.03;0.03;;;;;;;1.78;61.48;101188.53;4346708;32;32618;-86
2024/01/24 03:03:50;;;;;;;1.48;0.88;;;;;;;2.01;60.48;101180.16;4331404;32;33368;-86
2024/01/24 03:06:18;;;;;;;3.90;1.17;;;;;;;1.85;61.12;101178.19;4341144;32;33865;-83
2024/01/24 03:08:58;;;;;;;1.73;1.58;;;;;;;1.90;61.14;101166.09;4335184;32;31609;-83
2024/01/24 03:11:26;;;;;;;0.68;0.68;;;;;;;1.76;60.69;101163.34;4352337;32;33621;-83
2024/01/24 03:13:54;;;;;;;1.12;1.00;;;;;;;1.67;60.87;101153.66;4360033;32;34646;-83
2024/01/24 03:16:21;;;;;;;0.00;0.00;;;;;;;1.73;61.69;101153.75;4335236;32;37745;-83
2024/01/24 03:18:51;;;;;;;0.00;0.00;;;;;;;1.79;60.82;101147.75;4351952;32;34229;-83
2024/01/24 03:21:19;;;;;;;0.73;0.73;;;;;;;1.78;61.07;101141.66;4331092;32;33800;-83
2024/01/24 03:23:46;;;;;;;0.00;0.00;;;;;;;1.83;60.48;101130.44;4353121;32;33851;-84
2024/01/24 03:26:16;;;;;;;0.20;0.20;;;;;;;2.31;59.60;101123.19;4352664;32;33069;-83
2024/01/24 03:28:44;;;;;;;0.10;0.10;;;;;;;2.07;60.15;101127.25;4351083;32;33326;-83
2024/01/24 03:31:12;;;;;;;5.28;0.65;;;;;;;2.17;60.03;101114.34;4354584;32;33977;-83
2024/01/24 03:33:40;;;;;;;1.45;1.20;;;;;;;1.84;60.46;101108.72;4354856;32;33898;-84
2024/01/24 03:36:07;;;;;;;0.75;0.75;;;;;;;1.62;61.73;101100.66;4337676;32;34535;-84
2024/01/24 03:38:35;;;;;;;0.00;0.00;;;;;;;1.59;61.71;101094.53;4351701;32;32331;-87
2024/01/24 03:41:03;;;;;;;0.50;0.50;;;;;;;1.63;61.76;101089.38;4349280;32;33780;-87
2024/01/24 03:43:31;;;;;;;0.05;0.05;;;;;;;1.64;61.71;101085.03;4338721;32;32451;-84
2024/01/24 03:45:59;;;;;;;0.90;0.90;;;;;;;2.13;60.59;101085.63;4331436;32;33323;-84
2024/01/24 03:48:27;;;;;;;0.00;0.00;;;;;;;2.23;59.96;101083.16;4337140;32;32945;-83
2024/01/24 03:50:55;;;;;;;0.03;0.03;;;;;;;2.01;59.43;101102.88;4350767;32;33920;-85
2024/01/24 03:53:23;;;;;;;0.00;0.00;;;;;;;1.87;61.17;101095.75;4362435;32;33078;-85
2024/01/24 03:55:51;;;;;;;0.30;0.30;;;;;;;1.89;61.47;101096.62;4349478;32;34202;-85
2024/01/24 03:58:19;;;;;;;0.40;0.40;;;;;;;1.52;62.49;101104.00;4341316;32;32545;-85
2024/01/24 04:00:46;;;;;;;0.30;0.30;;;;;;;1.87;62.15;101099.25;4340618;32;33737;-85
2024/01/24 04:03:14;;;;;;;0.62;0.62;;;;;;;1.91;62.35;101093.22;4361100;32;33484;-85
2024/01/24 04:05:43;;;;;;;0.32;0.20;;;;;;;2.16;62.09;101096.97;4352496;32;34603;-84
2024/01/24 04:08:11;;;;;;;0.30;0.30;;;;;;;2.18;62.13;101090.03;4339511;32;33787;-84
2024/01/24 04:10:39;;;;;;;0.13;0.13;;;;;;;2.04;62.92;101091.59;4339940;32;32641;-84
2024/01/24 04:13:06;;;;;;;2.83;0.77;;;;;;;2.01;63.19;101091.59;4349048;32;34401;-84
2024/01/24 04:15:34;;;;;;;0.30;0.30;;;;;;;1.93;63.65;101090.63;4337905;32;33888;-85
2024/01/24 04:18:02;;;;;;;0.50;0.50;;;;;;;1.84;64.65;101095.72;4339262;32;33060;-84
2024/01/24 04:20:30;;;;;;;0.65;0.65;;;;;;;2.08;63.95;101090.78;4339120;32;33891;-84
2024/01/24 04:22:59;;;;;;;0.25;0.25;;;;;;;2.18;63.62;101095.25;4346233;32;33336;-84
2024/01/24 04:25:27;;;;;;;0.28;0.28;;;;;;;2.04;63.41;101094.22;4349966;32;33603;-84
2024/01/24 04:27:54;;;;;;;0.85;0.85;;;;;;;1.89;64.07;101084.50;4334660;33;34689;-88
2024/01/24 04:30:22;;;;;;;3.72;2.35;;;;;;;1.86;64.43;101083.59;4334782;33;33257;-88
2024/01/24 04:32:50;;;;;;;0.15;0.15;;;;;;;2.03;64.52;101079.44;4334787;33;33852;-88
2024/01/24 04:35:18;;;;;;;1.90;1.35;;;;;;;2.07;64.31;101083.84;4344060;32;33409;-88
2024/01/24 04:37:45;;;;;;;0.00;0.00;;;;;;;2.17;64.16;101085.69;4374054;32;33446;-87
2024/01/24 04:40:13;;;;;;;0.40;0.40;;;;;;;2.12;64.36;101083.88;4336714;32;32192;-88
2024/01/24 04:42:41;;;;;;;0.15;0.15;;;;;;;2.26;64.12;101083.19;4349592;32;33882;-87
2024/01/24 04:45:10;;;;;;;1.42;1.33;;;;;;;2.39;63.73;101078.97;4350334;32;33639;-88
2024/01/24 04:47:42;;;;;;;2.58;2.42;;;;;;;2.37;63.45;101074.59;4339932;32;32541;-85
2024/01/24 04:50:11;;;;;;;8.43;5.12;;;;;;;2.48;63.54;101062.56;4350888;32;34453;-85
2024/01/24 04:52:39;;;;;;;2.03;1.92;;;;;;;2.46;63.57;101059.03;4346683;32;33785;-85
2024/01/24 04:55:11;;;;;;;3.28;3.08;;;;;;;2.52;63.60;101067.81;4352399;32;34022;-85
2024/01/24 04:57:40;;;;;;;3.30;2.03;;;;;;;2.53;64.02;101061.75;4344439;32;34266;-84
2024/01/24 05:00:09;;;;;;;3.72;2.58;;;;;;;2.60;63.44;101065.25;4361647;32;33394;-84
2024/01/24 05:02:37;;;;;;;2.08;1.98;;;;;;;2.63;63.65;101059.22;4345354;32;32713;-84
2024/01/24 05:05:06;;;;;;;3.20;2.97;;;;;;;2.68;63.85;101055.78;4339014;32;32962;-84
2024/01/24 05:07:34;;;;;;;12.63;3.05;;;;;;;2.79;63.38;101048.91;4362487;32;33542;-88
2024/01/24 05:10:03;;;;;;;4.37;4.00;;;;;;;2.67;63.61;101050.56;4362893;32;33471;-89
2024/01/24 05:12:32;;;;;;;1.75;1.65;;;;;;;2.78;63.99;101046.28;4372719;32;35178;-84
2024/01/24 05:14:59;;;;;;;0.57;0.57;;;;;;;2.83;63.97;101037.63;4340339;32;33160;-84
2024/01/24 05:17:29;;;;;;;3.67;2.03;;;;;;;2.80;63.70;101024.59;4349613;32;33402;-84
2024/01/24 05:19:57;;;;;;;3.78;3.12;;;;;;;2.97;63.63;101014.25;4339700;32;34538;-84
2024/01/24 05:22:24;;;;;;;0.80;0.80;;;;;;;3.15;62.92;101017.84;4339737;32;33417;-84
2024/01/24 05:24:52;;;;;;;0.25;0.25;;;;;;;3.50;61.98;101013.69;4344304;32;32951;-84
2024/01/24 05:27:20;;;;;;;1.65;1.52;;;;;;;3.22;63.35;101012.66;4356345;32;33396;-84
2024/01/24 05:29:47;;;;;;;0.40;0.40;;;;;;;3.55;62.38;101021.53;4339241;32;33114;-84
2024/01/24 05:32:15;;;;;;;1.85;1.75;;;;;;;3.42;63.02;101014.50;4340745;32;34490;-84
2024/01/24 05:34:44;;;;;;;1.65;0.90;;;;;;;3.48;62.84;101018.03;4341821;32;33055;-84
2024/01/24 05:37:11;;;;;;;2.83;2.08;;;;;;;3.30;63.31;101020.56;4334571;32;32161;-84
2024/01/24 05:39:41;;;;;;;0.98;0.98;;;;;;;3.09;63.95;101021.31;4360099;32;34161;-84
2024/01/24 05:42:10;;;;;;;0.93;0.93;;;;;;;3.16;63.37;101023.06;4335769;32;34205;-88
2024/01/24 05:44:37;;;;;;;0.52;0.52;;;;;;;3.34;63.50;101017.97;4344132;32;32703;-84
2024/01/24 05:47:05;;;;;;;1.80;1.55;;;;;;;3.10;64.78;101028.28;4356125;32;32854;-84
2024/01/24 05:49:36;;;;;;;1.10;1.02;;;;;;;3.39;63.78;101024.94;4350892;32;33376;-84
2024/01/24 05:52:05;;;;;;;0.32;0.32;;;;;;;3.06;65.29;101021.28;4324702;32;32988;-84
2024/01/24 05:54:33;;;;;;;0.55;0.55;;;;;;;3.19;64.68;101015.28;4326768;32;33744;-84
2024/01/24 05:57:01;;;;;;;0.13;0.13;;;;;;;3.49;64.27;101011.06;4344537;32;33244;-84
2024/01/24 05:59:29;;;;;;;0.73;0.73;;;;;;;3.42;64.80;101006.66;4344392;32;34178;-86
2024/01/24 06:01:57;;;;;;;0.70;0.47;;;;;;;3.23;66.42;101004.00;4330528;32;33473;-86
2024/01/24 06:04:25;;;;;;;0.00;0.00;;;;;;;3.37;67.00;101011.91;4353714;32;32837;-87
2024/01/24 06:06:54;;;;;;;1.27;1.17;;;;;;;3.31;67.80;101007.50;4343125;32;32910;-87
2024/01/24 06:09:22;;;;;;;0.70;0.52;;;;;;;3.65;67.34;101012.00;4345097;32;34154;-85
2024/01/24 06:11:51;;;;;;;0.22;0.22;;;;;;;3.66;67.21;101012.03;4340155;32;33222;-84
2024/01/24 06:14:18;;;;;;;0.00;0.00;;;;;;;3.78;67.28;101019.03;4350607;32;33642;-84
2024/01/24 06:16:46;;;;;;;0.20;0.15;;;;;;;3.90;66.32;101010.37;4336601;32;32261;-85
2024/01/24 06:19:14;;;;;;;0.00;0.00;;;;;;;4.08;65.33;101002.53;4330646;32;32607;-85
2024/01/24 06:21:42;;;;;;;0.05;0.05;;;;;;;3.93;66.38;100998.16;4340993;32;33394;-85
2024/01/24 06:24:09;;;;;;;0.30;0.30;;;;;;;4.00;65.79;100997.31;4339041;32;32588;-85
2024/01/24 06:26:38;;;;;;;1.33;0.98;;;;;;;4.10;65.72;100996.47;4357692;32;32326;-87
2024/01/24 06:29:06;;;;;;;0.52;0.52;;;;;;;4.37;64.28;100985.19;4342919;32;33642;-87
2024/01/24 06:31:34;;;;;;;0.35;0.35;;;;;;;4.53;63.71;100985.16;4316430;33;33203;-85
2024/01/24 06:34:02;;;;;;;0.75;0.75;;;;;;;4.34;64.17;100969.47;4337422;32;35280;-85
2024/01/24 06:36:31;;;;;;;0.10;0.10;;;;;;;4.25;64.59;100952.91;4350731;32;31751;-85
2024/01/24 06:38:59;;;;;;;0.22;0.22;;;;;;;4.20;64.13;100942.44;4349893;32;33138;-85
2024/01/24 06:41:28;;;;;;;0.93;0.93;;;;;;;4.25;64.21;100943.31;4351902;32;33302;-85
2024/01/24 06:43:55;;;;;;;1.90;1.33;;;;;;;4.27;64.23;100945.94;4342803;32;33513;-85
2024/01/24 06:46:26;;;;;;;0.75;0.75;;;;;;;4.60;63.20;100939.81;4353327;32;34053;-86
2024/01/24 06:48:55;;;;;;;0.20;0.20;;;;;;;4.37;63.42;100932.88;4350736;32;33499;-85
2024/01/24 06:51:23;;;;;;;1.67;1.55;;;;;;;4.34;63.56;100921.53;4342264;32;33887;-85
2024/01/24 06:53:50;;;;;;;0.10;0.10;;;;;;;4.41;63.31;100918.03;4318993;32;34436;-85
2024/01/24 06:56:20;;;;;;;0.15;0.15;;;;;;;4.59;63.15;100923.25;4343664;32;33973;-86
2024/01/24 06:58:48;;;;;;;0.22;0.22;;;;;;;4.69;62.96;100908.41;4313859;32;33263;-87
2024/01/24 07:01:15;;;;;;;0.00;0.00;;;;;;;4.71;62.91;100913.66;4351825;32;33584;-90
2024/01/24 07:03:44;;;;;;;0.00;0.00;;;;;;;4.50;63.72;100906.69;4354065;32;32826;-90
2024/01/24 07:06:12;;;;;;;0.22;0.22;;;;;;;4.91;62.37;100905.75;4336749;32;32335;-90
2024/01/24 07:08:40;;;;;;;0.57;0.57;;;;;;;4.82;62.31;100910.12;4335247;33;33154;-90
2024/01/24 07:11:09;;;;;;;0.03;0.03;;;;;;;5.03;62.08;100905.69;4309719;32;32938;-90
2024/01/24 07:13:37;;;;;;;0.85;0.85;;;;;;;4.92;63.19;100884.81;4361635;32;33237;-89
2024/01/24 07:16:05;;;;;;;0.00;0.00;;;;;;;5.31;61.71;100881.13;4328652;33;32518;-89
2024/01/24 07:18:35;;;;;;;0.30;0.30;;;;;;;5.42;60.99;100878.50;4314223;32;32579;-89
2024/01/24 07:21:06;;;;;;;0.20;0.20;;;;;;;5.42;61.19;100885.47;4322062;32;33438;-89
2024/01/24 07:23:34;;;;;;;1.98;1.50;;;;;;;5.48;60.84;100878.44;4360077;32;33652;-89
2024/01/24 07:26:02;;;;;;;0.08;0.08;;;;;;;5.73;59.99;100891.41;4347164;32;33031;-89
2024/01/24 07:28:30;;;;;;;0.00;0.00;;;;;;;5.87;59.44;100879.94;4343584;32;33019;-89
2024/01/24 07:30:58;;;;;;;0.50;0.50;;;;;;;5.72;59.26;100889.66;4318489;32;32905;-89
2024/01/24 07:33:26;;;;;;;3.83;0.37;;;;;;;5.79;59.36;100876.50;4334816;32;32587;-89
2024/01/24 07:35:54;;;;;;;1.00;0.73;;;;;;;5.88;59.11;100876.41;4344961;32;32393;-89
2024/01/24 07:38:23;;;;;;;0.20;0.20;;;;;;;5.60;59.85;100877.50;4319959;33;34079;-89
2024/01/24 07:40:50;;;;;;;1.95;1.33;;;;;;;5.54;60.71;100872.28;4327178;33;33589;-89
2024/01/24 07:43:19;;;;;;;1.23;0.68;;;;;;;5.39;60.83;100870.63;4325897;33;33375;-90
2024/01/24 07:45:48;;;;;;;0.80;0.80;;;;;;;5.40;60.60;100867.13;4314493;33;31709;-89
2024/01/24 07:48:16;;;;;;;0.45;0.45;;;;;;;5.99;59.05;100855.41;4326975;33;33271;-89
2024/01/24 07:50:45;;;;;;;0.43;0.43;;;;;;;6.01;58.89;100860.66;4322085;33;32700;-89
2024/01/24 07:53:13;;;;;;;0.60;0.60;;;;;;;5.93;59.16;100858.06;4321809;33;32751;-90
2024/01/24 07:55:41;;;;;;;0.80;0.77;;;;;;;5.66;60.15;100861.75;4345444;32;31839;-90
2024/01/24 07:58:27;;;;;;;0.30;0.30;;;;;;;5.92;59.41;100850.22;4326053;33;32809;-90
2024/01/24 08:00:55;;;;;;;1.60;1.23;;;;;;;6.36;57.92;100853.34;4313878;33;33503;-90
2024/01/24 08:03:24;;;;;;;0.95;0.85;;;;;;;6.61;57.44;100847.84;4313681;33;33510;-90
2024/01/24 08:05:52;;;;;;;0.90;0.77;;;;;;;6.72;57.14;100840.72;4311216;33;32111;-89
2024/01/24 08:08:20;;;;;;;1.70;1.08;;;;;;;6.83;56.58;100836.19;4312833;33;32358;-89
2024/01/24 08:10:48;;;;;;;0.32;0.32;;;;;;;6.64;57.54;100853.03;4325664;33;33447;-88
2024/01/24 08:13:19;;;;;;;1.73;1.30;;;;;;;6.40;58.11;100844.53;4312028;33;34325;-91
2024/01/24 08:15:47;;;;;;;0.03;0.03;;;;;;;6.39;58.56;100852.44;4322018;33;32056;-91
2024/01/24 08:18:16;;;;;;;2.20;1.48;;;;;;;6.72;57.46;100872.22;4330371;33;34810;-90
2024/01/24 08:20:44;;;;;;;0.17;0.17;;;;;;;6.67;57.53;100855.66;4335696;33;33754;-91
2024/01/24 08:23:18;;;;;;;0.43;0.37;;;;;;;6.52;58.11;100855.81;4313344;33;32886;-91
2024/01/24 08:25:49;;;;;;;1.00;1.00;;;;;;;6.73;57.77;100845.06;4326162;33;33873;-90
2024/01/24 08:28:18;;;;;;;0.08;0.08;;;;;;;6.58;58.17;100843.47;4326254;33;33000;-91
2024/01/24 08:30:46;;;;;;;0.75;0.45;;;;;;;6.62;58.54;100841.69;4323366;33;33504;-91
2024/01/24 08:33:15;;;;;;;0.82;0.82;;;;;;;6.40;59.21;100843.66;4336766;33;33163;-90
2024/01/24 08:35:43;;;;;;;0.30;0.30;;;;;;;6.62;58.85;100837.31;4310783;33;32633;-90
2024/01/24 08:38:10;;;;;;;0.40;0.40;;;;;;;6.68;58.73;100844.25;4323868;33;33326;-91
2024/01/24 08:40:39;;;;;;;0.15;0.15;;;;;;;6.68;58.88;100836.38;4343276;32;32907;-91
2024/01/24 08:43:08;;;;;;;0.32;0.32;;;;;;;6.38;60.20;100835.81;4343044;32;34118;-91
2024/01/24 08:45:36;;;;;;;0.70;0.70;;;;;;;6.31;60.49;100834.13;4329709;32;32321;-91
2024/01/24 08:48:04;;;;;;;0.62;0.60;;;;;;;6.32;60.62;100832.41;4332525;32;33104;-90
2024/01/24 08:50:32;;;;;;;1.17;0.80;;;;;;;6.35;60.64;100824.47;4350780;32;32842;-91
2024/01/24 08:52:59;;;;;;;2.60;0.95;;;;;;;6.03;62.05;100825.69;4341559;32;32519;-91
2024/01/24 08:55:27;;;;;;;0.37;0.37;;;;;;;5.97;62.15;100816.97;4336457;32;33470;-91
2024/01/24 08:57:55;;;;;;;0.13;0.13;;;;;;;6.11;62.04;100807.25;4341098;33;33842;-91
2024/01/24 09:00:23;;;;;;;0.43;0.43;;;;;;;6.48;60.92;100799.00;4339676;33;32549;-91
2024/01/24 09:02:52;;;;;;;0.17;0.17;;;;;;;6.51;60.89;100794.59;4326235;32;34719;-90
2024/01/24 09:05:21;;;;;;;0.37;0.37;;;;;;;6.26;61.32;100787.84;4340387;32;32461;-91
2024/01/24 09:07:49;;;;;;;1.35;0.90;;;;;;;6.03;63.08;100788.97;4351382;32;33693;-90
2024/01/24 09:10:18;;;;;;;1.15;1.10;;;;;;;6.17;62.30;100788.81;4352243;32;33436;-91
2024/01/24 09:12:46;;;;;;;1.55;0.93;;;;;;;6.20;62.20;100790.56;4329544;32;33709;-90
2024/01/24 09:15:14;;;;;;;0.10;0.10;;;;;;;6.44;61.56;100771.91;4333344;32;32923;-91
2024/01/24 09:17:43;;;;;;;1.48;0.65;;;;;;;6.16;62.61;100766.09;4323757;32;33517;-91
2024/01/24 09:20:10;;;;;;;0.80;0.80;;;;;;;5.98;63.61;100759.31;4345127;32;32721;-91
2024/01/24 09:22:38;;;;;;;0.00;0.00;;;;;;;6.21;62.60;100769.53;4347453;32;33643;-90
2024/01/24 09:25:06;;;;;;;0.45;0.45;;;;;;;6.10;63.16;100771.41;4331871;33;33354;-90
2024/01/24 09:27:36;;;;;;;0.37;0.37;;;;;;;6.32;62.68;100767.69;4328080;33;32817;-90
2024/01/24 09:30:05;;;;;;;1.33;1.23;;;;;;;6.45;62.25;100751.81;4334693;32;32725;-91
2024/01/24 09:32:33;;;;;;;0.60;0.60;;;;;;;6.00;63.73;100756.66;4344711;32;32470;-90
2024/01/24 09:35:01;;;;;;;1.48;1.37;;;;;;;6.29;63.03;100749.34;4337690;33;33442;-91
2024/01/24 09:37:30;;;;;;;1.45;0.85;;;;;;;6.24;63.11;100737.19;4336507;32;33039;-90
2024/01/24 09:39:58;;;;;;;1.37;1.27;;;;;;;5.87;63.56;100724.41;4348288;32;32933;-90
2024/01/24 09:42:26;;;;;;;0.55;0.55;;;;;;;5.59;64.34;100739.50;4349607;32;32738;-89
2024/01/24 09:44:57;;;;;;;3.92;0.52;;;;;;;5.70;63.90;100740.31;4330193;33;32066;-90
2024/01/24 09:47:25;;;;;;;1.60;1.50;;;;;;;5.86;63.62;100746.28;4359082;32;32489;-90
2024/01/24 09:49:53;;;;;;;0.45;0.05;;;;;;;6.01;63.09;100729.56;4344619;32;32393;-91
2024/01/24 09:52:24;;;;;;;2.80;2.60;;;;;;;5.68;63.59;100718.47;4332765;33;32242;-91
2024/01/24 09:54:58;;;;;;;0.28;0.28;;;;;;;5.68;63.79;100715.84;4343173;32;33530;-91
2024/01/24 09:57:26;;;;;;;0.10;0.10;;;;;;;6.01;62.31;100708.59;4329983;33;32264;-90
2024/01/24 09:59:54;;;;;;;0.20;0.20;;;;;;;5.71;63.05;100697.50;4335383;32;32463;-90
2024/01/24 10:02:25;;;;;;;0.80;0.80;;;;;;;5.65;63.15;100689.72;4313064;32;32689;-90
2024/01/24 10:04:54;;;;;;;0.80;0.75;;;;;;;5.69;63.19;100673.03;4343845;32;32057;-90
2024/01/24 10:07:22;;;;;;;0.30;0.30;;;;;;;5.84;62.75;100644.09;4347263;32;33800;-90
2024/01/24 10:10:06;;;;;;;0.45;0.45;;;;;;;5.53;63.47;100650.50;4349827;32;32347;-91
2024/01/24 10:12:35;;;;;;;0.10;0.10;;;;;;;5.60;63.44;100647.81;4329083;32;33594;-91
2024/01/24 10:15:03;;;;;;;0.10;0.10;;;;;;;5.34;63.94;100657.66;4323512;32;31993;-90
2024/01/24 10:17:30;;;;;;;0.57;0.57;;;;;;;5.54;63.12;100644.37;4326477;32;33790;-92
2024/01/24 10:20:14;;;;;;;0.55;0.55;;;;;;;5.29;64.07;100628.91;4379658;32;33764;-93
2024/01/24 10:23:01;;;;;;;0.88;0.88;;;;;;;5.82;62.56;100611.75;4387143;32;33653;-92
2024/01/24 10:25:29;;;;;;;1.67;1.23;;;;;;;6.03;61.29;100591.44;4388601;32;32587;-91
2024/01/24 10:28:16;;;;;;;11.05;2.70;;;;;;;6.44;59.95;100584.78;4383453;32;33169;-93
2024/01/24 10:31:13;;;;;;;1.52;0.98;;;;;;;5.62;61.99;100591.03;4330825;32;32854;-91
2024/01/24 10:34:05;;;;;;;0.10;0.10;;;;;;;5.82;61.53;100582.06;4342794;32;33757;-92
2024/01/24 10:36:35;;;;;;;0.90;0.90;;;;;;;5.59;62.68;100583.19;4310436;33;34033;-92
2024/01/24 10:39:25;;;;;;;0.45;0.45;;;;;;;6.26;60.68;100578.91;4354311;32;33847;-93
2024/01/24 10:42:20;;;;;;;0.50;0.50;;;;;;;5.93;61.32;100574.09;4358304;32;33264;-93
2024/01/24 10:45:03;;;;;;;0.20;0.20;;;;;;;6.14;60.76;100568.59;4333065;32;33764;-93
2024/01/24 10:47:58;;;;;;;0.52;0.52;;;;;;;6.68;59.33;100555.56;4377095;32;34173;-93
2024/01/24 10:50:39;;;;;;;0.05;0.05;;;;;;;6.57;59.61;100557.50;4392692;32;33894;-92
2024/01/24 10:53:31;;;;;;;0.05;0.05;;;;;;;6.78;59.26;100564.16;4376133;32;32618;-92
2024/01/24 10:56:13;;;;;;;0.90;0.90;;;;;;;7.43;56.89;100556.91;4371026;32;33182;-92
2024/01/24 10:59:04;;;;;;;0.10;0.10;;;;;;;7.56;56.79;100547.03;4372814;32;32030;-92
2024/01/24 11:01:44;;;;;;;1.10;1.02;;;;;;;6.89;58.34;100538.63;4351410;32;33047;-92
2024/01/24 11:04:37;;;;;;;0.52;0.45;;;;;;;7.24;57.17;100516.97;4361056;32;32881;-92
2024/01/24 11:07:37;;;;;;;0.30;0.30;;;;;;;6.90;57.93;100501.81;4364567;32;33817;-93
2024/01/24 11:10:40;;;;;;;0.32;0.32;;;;;;;6.84;58.00;100499.31;4385090;32;32049;-92
2024/01/24 11:13:20;;;;;;;0.05;0.05;;;;;;;6.96;58.20;100485.09;4362970;32;34739;-92
2024/01/24 11:16:31;;;;;;;0.15;0.15;;;;;;;6.89;57.95;100475.62;4371820;32;32921;-92
2024/01/24 11:19:22;;;;;;;0.00;0.00;;;;;;;6.80;57.91;100465.28;4368933;32;33961;-93
2024/01/24 11:22:24;;;;;;;0.28;0.28;;;;;;;6.91;57.48;100456.28;4379535;32;33320;-91
2024/01/24 11:25:04;;;;;;;0.77;0.77;;;;;;;7.29;56.87;100454.69;4372298;32;32518;-92
2024/01/24 11:28:06;;;;;;;0.00;0.00;;;;;;;7.49;56.23;100450.81;4381871;32;33448;-91
2024/01/24 11:30:45;;;;;;;0.30;0.30;;;;;;;7.58;55.93;100451.47;4398523;32;34472;-92
2024/01/24 11:33:36;;;;;;;0.37;0.37;;;;;;;7.25;57.08;100434.63;4339918;33;31745;-92
2024/01/24 11:36:16;;;;;;;0.45;0.45;;;;;;;6.80;57.51;100423.28;4379384;32;33308;-91
2024/01/24 11:39:37;;;;;;;0.13;0.13;;;;;;;7.24;56.42;100385.63;4349625;32;33147;-91
2024/01/24 11:42:26;;;;;;;0.75;0.75;;;;;;;7.65;55.23;100362.87;4403605;32;34550;-92
2024/01/24 11:45:19;;;;;;;1.50;1.02;;;;;;;7.43;56.85;100372.97;4387562;32;32700;-92
2024/01/24 11:47:58;;;;;;;1.17;1.08;;;;;;;7.52;56.19;100374.53;4380973;32;32575;-91
2024/01/24 11:50:39;;;;;;;0.43;0.43;;;;;;;7.88;54.79;100371.09;4378447;32;32706;-92